createdAt,value
2018-08-24T00:00:04.852Z,32.53
2018-08-24T00:02:32.876Z,32.17
2018-08-24T00:05:00.891Z,34.23
2018-08-24T00:07:29.051Z,30.93
2018-08-24T00:09:56.964Z,35.43
2018-08-24T00:12:25.052Z,36.83
2018-08-24T00:14:53.087Z,32.53
2018-08-24T00:17:26.678Z,40.67
2018-08-24T00:19:54.670Z,35.37
2018-08-24T00:22:22.672Z,39.23
2018-08-24T00:24:50.701Z,33.10
2018-08-24T00:27:18.792Z,37.60
2018-08-24T00:29:46.792Z,37.33
2018-08-24T00:32:14.789Z,39.17
2018-08-24T00:34:42.790Z,39.27
2018-08-24T00:37:10.845Z,37.00
2018-08-24T00:39:42.248Z,39.23
2018-08-24T00:42:10.378Z,36.67
2018-08-24T00:44:38.420Z,31.10
2018-08-24T00:47:06.464Z,41.37
2018-08-24T00:49:34.464Z,35.40
2018-08-24T00:52:02.469Z,34.13
2018-08-24T00:54:30.484Z,34.03
2018-08-24T00:56:58.484Z,37.37
2018-08-24T00:59:26.513Z,33.43
2018-08-24T01:01:54.513Z,41.67
2018-08-24T01:04:27.906Z,38.57
2018-08-24T01:06:55.906Z,28.27
2018-08-24T01:09:23.936Z,33.93
2018-08-24T01:11:57.385Z,35.43
2018-08-24T01:14:25.380Z,29.00
2018-08-24T01:16:58.800Z,29.63
2018-08-24T01:19:26.830Z,30.53
2018-08-24T01:21:54.834Z,31.07
2018-08-24T01:24:27.014Z,27.70
2018-08-24T01:27:00.544Z,30.53
2018-08-24T01:29:28.547Z,31.20
2018-08-24T01:31:56.537Z,25.83
2018-08-24T01:34:24.552Z,27.77
2018-08-24T01:36:52.648Z,26.67
2018-08-24T01:39:20.672Z,26.73
2018-08-24T01:41:49.001Z,35.93
2018-08-24T01:44:17.169Z,25.43
2018-08-24T01:46:45.240Z,29.80
2018-08-24T01:49:13.266Z,29.57
2018-08-24T01:51:48.070Z,31.70
2018-08-24T01:54:16.069Z,28.93
2018-08-24T01:56:44.128Z,31.33
2018-08-24T01:59:12.837Z,26.00
2018-08-24T02:01:40.735Z,26.27
2018-08-24T02:04:08.757Z,29.70
2018-08-24T02:06:36.756Z,31.87
2018-08-24T02:09:08.417Z,25.93
2018-08-24T02:11:36.460Z,27.80
2018-08-24T02:14:09.856Z,27.23
2018-08-24T02:16:38.796Z,25.70
2018-08-24T02:20:11.936Z,20.60
2018-08-24T02:22:39.927Z,27.10
2018-08-24T02:25:07.928Z,19.03
2018-08-24T02:27:35.949Z,23.30
2018-08-24T02:30:04.597Z,29.65
2018-08-24T02:32:32.593Z,20.73
2018-08-24T02:35:00.610Z,27.97
2018-08-24T02:37:29.601Z,25.20
2018-08-24T02:39:57.592Z,23.90
2018-08-24T02:42:25.610Z,21.70
2018-08-24T02:44:53.651Z,27.80
2018-08-24T02:47:21.613Z,20.03
2018-08-24T02:49:49.622Z,25.93
2018-08-24T02:52:17.616Z,22.27
2018-08-24T02:54:45.620Z,23.47
2018-08-24T02:57:13.613Z,21.97
2018-08-24T02:59:41.618Z,26.40
2018-08-24T03:02:09.613Z,23.62
2018-08-24T03:04:37.613Z,18.73
2018-08-24T03:07:05.621Z,22.03
2018-08-24T03:09:33.715Z,20.03
2018-08-24T03:12:01.729Z,20.10
2018-08-24T03:14:29.733Z,17.33
2018-08-24T03:17:03.268Z,12.57
2018-08-24T03:19:31.321Z,8.87
2018-08-24T03:21:59.352Z,8.40
2018-08-24T03:24:27.458Z,4.70
2018-08-24T03:26:55.445Z,5.03
2018-08-24T03:29:23.488Z,3.30
2018-08-24T03:31:51.474Z,3.05
2018-08-24T03:34:19.472Z,2.13
2018-08-24T03:36:47.475Z,1.80
2018-08-24T03:39:15.497Z,6.30
2018-08-24T03:41:43.492Z,2.20
2018-08-24T03:44:11.485Z,2.23
2018-08-24T03:46:39.493Z,2.10
2018-08-24T03:49:07.478Z,2.10
2018-08-24T03:51:35.463Z,2.50
2018-08-24T03:54:07.659Z,2.17
2018-08-24T03:56:35.653Z,2.40
2018-08-24T03:59:03.641Z,2.60
2018-08-24T04:01:31.636Z,2.27
2018-08-24T04:03:59.625Z,2.47
2018-08-24T04:06:27.638Z,2.60
2018-08-24T04:08:55.634Z,2.70
2018-08-24T04:11:23.697Z,2.90
2018-08-24T04:13:51.676Z,2.70
2018-08-24T04:16:19.885Z,8.03
2018-08-24T04:18:47.885Z,3.30
2018-08-24T04:21:15.886Z,4.10
2018-08-24T04:23:44.049Z,4.07
2018-08-24T04:26:12.187Z,4.50
2018-08-24T04:28:40.044Z,3.27
2018-08-24T04:31:08.053Z,4.37
2018-08-24T04:33:36.097Z,4.03
2018-08-24T04:36:04.109Z,7.73
2018-08-24T04:38:32.078Z,8.57
2018-08-24T04:41:00.103Z,4.80
2018-08-24T04:43:28.087Z,7.33
2018-08-24T04:45:56.089Z,7.50
2018-08-24T04:48:24.070Z,4.80
2018-08-24T04:50:52.060Z,10.03
2018-08-24T04:53:20.089Z,8.23
2018-08-24T04:55:48.172Z,5.93
2018-08-24T04:58:16.186Z,5.53
2018-08-24T05:00:44.149Z,5.23
2018-08-24T05:03:12.285Z,12.57
2018-08-24T05:05:40.398Z,5.87
2018-08-24T05:08:08.318Z,7.50
2018-08-24T05:10:36.350Z,10.70
2018-08-24T05:13:04.349Z,6.20
2018-08-24T05:15:32.744Z,7.57
2018-08-24T05:18:00.724Z,5.23
2018-08-24T05:20:28.717Z,9.50
2018-08-24T05:22:56.726Z,8.07
2018-08-24T05:25:24.697Z,15.10
2018-08-24T05:27:52.776Z,8.17
2018-08-24T05:30:20.769Z,6.30
2018-08-24T05:32:48.950Z,5.93
2018-08-24T05:35:17.930Z,5.40
2018-08-24T05:37:45.970Z,5.17
2018-08-24T05:40:13.977Z,15.60
2018-08-24T05:42:42.229Z,8.20
2018-08-24T05:45:10.301Z,4.93
2018-08-24T05:47:38.424Z,8.80
2018-08-24T05:50:06.968Z,12.53
2018-08-24T05:52:34.985Z,9.53
2018-08-24T05:55:03.025Z,5.33
2018-08-24T05:57:31.096Z,7.97
2018-08-24T05:59:59.117Z,5.03
2018-08-24T06:02:27.172Z,8.20
2018-08-24T06:04:55.405Z,6.63
2018-08-24T06:07:24.488Z,5.47
2018-08-24T06:09:52.477Z,5.30
2018-08-24T06:12:20.484Z,7.07
2018-08-24T06:14:48.506Z,5.50
2018-08-24T06:17:21.942Z,8.37
2018-08-24T06:19:50.005Z,10.90
2018-08-24T06:22:18.121Z,9.57
2018-08-24T06:24:46.100Z,11.30
2018-08-24T06:27:14.089Z,9.87
2018-08-24T06:29:42.091Z,13.13
2018-08-24T06:32:10.081Z,4.77
2018-08-24T06:34:38.120Z,9.83
2018-08-24T06:37:06.299Z,12.97
2018-08-24T06:39:34.217Z,8.40
2018-08-24T06:42:02.348Z,10.33
2018-08-24T06:44:30.289Z,9.63
2018-08-24T06:46:58.296Z,10.13
2018-08-24T06:49:26.289Z,13.70
2018-08-24T06:51:54.292Z,14.03
2018-08-24T06:54:22.292Z,12.53
2018-08-24T06:56:50.256Z,9.13
2018-08-24T06:59:18.285Z,5.40
2018-08-24T07:01:46.304Z,9.93
2018-08-24T07:04:14.307Z,8.23
2018-08-24T07:06:42.652Z,8.47
2018-08-24T07:09:10.669Z,13.83
2018-08-24T07:11:38.777Z,12.40
2018-08-24T07:14:06.780Z,11.27
2018-08-24T07:16:34.758Z,8.03
2018-08-24T07:19:02.752Z,9.23
2018-08-24T07:21:30.760Z,9.00
2018-08-24T07:23:58.769Z,7.40
2018-08-24T07:26:26.786Z,9.50
2018-08-24T07:28:54.760Z,9.63
2018-08-24T07:31:22.744Z,13.23
2018-08-24T07:33:50.759Z,8.97
2018-08-24T07:36:18.768Z,14.43
2018-08-24T07:38:46.779Z,10.67
2018-08-24T07:41:14.808Z,11.77
2018-08-24T07:43:42.857Z,9.80
2018-08-24T07:46:10.861Z,12.60
2018-08-24T07:48:38.853Z,12.53
2018-08-24T07:51:06.849Z,9.80
2018-08-24T07:53:34.869Z,23.77
2018-08-24T07:56:02.921Z,16.53
2018-08-24T07:58:30.913Z,16.20
2018-08-24T08:00:58.902Z,9.67
2018-08-24T08:03:26.917Z,15.27
2018-08-24T08:05:54.929Z,8.67
2018-08-24T08:08:22.989Z,11.90
2018-08-24T08:10:51.013Z,10.57
2018-08-24T08:13:19.025Z,7.33
2018-08-24T08:15:47.053Z,13.27
2018-08-24T08:18:15.174Z,7.93
2018-08-24T08:20:43.896Z,12.20
2018-08-24T08:23:11.921Z,8.83
2018-08-24T08:25:39.962Z,11.37
2018-08-24T08:28:07.976Z,16.00
2018-08-24T08:30:36.186Z,14.00
2018-08-24T08:33:04.245Z,12.63
2018-08-24T08:35:32.465Z,10.10
2018-08-24T08:38:00.504Z,8.60
2018-08-24T08:40:28.532Z,19.63
2018-08-24T08:42:56.594Z,12.07
2018-08-24T08:45:24.702Z,11.13
2018-08-24T08:47:52.768Z,11.60
2018-08-24T08:50:20.781Z,13.47
2018-08-24T08:52:48.829Z,7.03
2018-08-24T08:55:16.869Z,8.63
2018-08-24T08:57:45.044Z,14.87
2018-08-24T09:00:13.045Z,9.43
2018-08-24T09:02:41.044Z,10.30
2018-08-24T09:05:09.061Z,17.77
2018-08-24T09:07:37.052Z,9.40
2018-08-24T09:10:05.070Z,8.83
2018-08-24T09:12:33.055Z,9.90
2018-08-24T09:15:01.109Z,9.07
2018-08-24T09:17:34.601Z,10.43
2018-08-24T09:20:07.933Z,7.70
2018-08-24T09:22:41.676Z,16.80
2018-08-24T09:25:15.033Z,14.33
2018-08-24T09:27:52.220Z,15.80
2018-08-24T09:30:21.088Z,12.73
2018-08-24T09:32:49.161Z,11.17
2018-08-24T09:35:17.442Z,9.03
2018-08-24T09:37:45.516Z,12.23
2018-08-24T09:40:13.569Z,21.03
2018-08-24T09:42:41.597Z,12.70
2018-08-24T09:45:09.611Z,11.73
2018-08-24T09:47:43.037Z,14.07
2018-08-24T09:50:16.397Z,12.90
2018-08-24T09:52:48.820Z,19.33
2018-08-24T09:55:17.068Z,12.33
2018-08-24T09:57:45.144Z,14.47
2018-08-24T10:00:13.161Z,14.37
2018-08-24T10:02:44.137Z,18.97
2018-08-24T10:05:17.697Z,14.80
2018-08-24T10:07:49.805Z,18.30
2018-08-24T10:10:17.858Z,16.07
2018-08-24T10:12:45.849Z,22.33
2018-08-24T10:15:13.878Z,22.93
2018-08-24T10:17:41.953Z,22.37
2018-08-24T10:20:10.012Z,25.10
2018-08-24T10:22:38.024Z,18.53
2018-08-24T10:25:06.115Z,16.33
2018-08-24T10:27:34.242Z,20.60
2018-08-24T10:30:02.252Z,14.77
2018-08-24T10:32:30.254Z,16.73
2018-08-24T10:34:58.244Z,14.53
2018-08-24T10:37:26.329Z,12.80
2018-08-24T10:39:54.358Z,14.47
2018-08-24T10:42:22.388Z,10.60
2018-08-24T10:44:50.423Z,11.50
2018-08-24T10:47:18.552Z,10.50
2018-08-24T10:49:46.485Z,10.13
2018-08-24T10:52:14.628Z,10.00
2018-08-24T10:54:42.959Z,8.23
2018-08-24T10:57:11.072Z,12.03
2018-08-24T10:59:39.068Z,13.90
2018-08-24T11:02:07.476Z,12.73
2018-08-24T11:04:35.352Z,7.87
2018-08-24T11:07:03.638Z,7.20
2018-08-24T11:09:31.658Z,11.73
2018-08-24T11:11:59.656Z,9.30
2018-08-24T11:14:27.662Z,9.43
2018-08-24T11:16:55.745Z,16.13
2018-08-24T11:19:23.713Z,7.30
2018-08-24T11:21:51.740Z,4.13
2018-08-24T11:24:19.848Z,5.93
2018-08-24T11:26:47.898Z,5.50
2018-08-24T11:29:15.898Z,3.73
2018-08-24T11:31:44.877Z,5.10
2018-08-24T11:34:13.324Z,6.87
2018-08-24T11:36:41.593Z,6.30
2018-08-24T11:39:10.018Z,6.80
2018-08-24T11:41:38.508Z,4.47
2018-08-24T11:44:06.656Z,6.50
2018-08-24T11:46:35.201Z,9.73
2018-08-24T11:49:03.232Z,9.73
2018-08-24T11:51:35.449Z,14.00
2018-08-24T11:54:03.467Z,33.03
2018-08-24T11:56:31.461Z,21.40
2018-08-24T11:58:59.496Z,6.87
2018-08-24T12:01:27.554Z,16.13
2018-08-24T12:03:55.797Z,15.53
2018-08-24T12:06:23.977Z,5.57
2018-08-24T12:08:52.018Z,12.20
2018-08-24T12:11:20.049Z,8.80
2018-08-24T12:13:48.106Z,8.20
2018-08-24T12:16:16.426Z,7.40
2018-08-24T12:18:46.468Z,10.90
2018-08-24T12:21:14.518Z,9.77
2018-08-24T12:23:42.766Z,4.47
2018-08-24T12:26:11.282Z,5.43
2018-08-24T12:28:39.447Z,8.50
2018-08-24T12:31:07.756Z,7.60
2018-08-24T12:33:35.765Z,10.40
2018-08-24T12:36:04.821Z,9.10
2018-08-24T12:38:32.833Z,4.93
2018-08-24T12:41:00.985Z,10.53
2018-08-24T12:43:29.017Z,5.20
2018-08-24T12:45:56.993Z,5.73
2018-08-24T12:48:25.025Z,14.77
2018-08-24T12:50:53.032Z,8.03
2018-08-24T12:53:21.045Z,8.77
2018-08-24T12:55:49.057Z,12.43
2018-08-24T12:58:17.091Z,28.07
2018-08-24T13:00:45.106Z,16.20
2018-08-24T13:03:13.249Z,3.87
2018-08-24T13:05:41.497Z,16.40
2018-08-24T13:08:09.753Z,12.60
2018-08-24T13:10:38.017Z,6.53
2018-08-24T13:13:06.116Z,11.03
2018-08-24T13:15:34.179Z,7.87
2018-08-24T13:18:02.300Z,11.80
2018-08-24T13:20:30.284Z,5.20
2018-08-24T13:22:58.389Z,4.27
2018-08-24T13:25:26.416Z,5.57
2018-08-24T13:27:54.425Z,3.67
2018-08-24T13:30:22.426Z,7.12
2018-08-24T13:32:50.484Z,2.33
2018-08-24T13:35:25.190Z,6.83
2018-08-24T13:37:53.624Z,4.93
2018-08-24T13:40:21.988Z,7.40
2018-08-24T13:42:50.025Z,7.33
2018-08-24T13:45:18.029Z,16.20
2018-08-24T13:47:47.064Z,5.10
2018-08-24T13:50:15.071Z,3.43
2018-08-24T13:52:43.133Z,10.20
2018-08-24T13:55:11.154Z,12.60
2018-08-24T13:57:39.146Z,8.80
2018-08-24T14:00:07.553Z,6.43
2018-08-24T14:02:35.654Z,6.43
2018-08-24T14:05:03.716Z,6.73
2018-08-24T14:07:31.788Z,4.50
2018-08-24T14:09:59.797Z,14.37
2018-08-24T14:12:27.804Z,7.70
2018-08-24T14:14:55.834Z,9.10
2018-08-24T14:17:23.837Z,5.47
2018-08-24T14:19:51.860Z,6.27
2018-08-24T14:22:19.848Z,8.57
2018-08-24T14:24:47.853Z,7.63
2018-08-24T14:27:15.885Z,11.37
2018-08-24T14:29:44.232Z,4.90
2018-08-24T14:32:12.212Z,4.20
2018-08-24T14:34:40.628Z,2.87
2018-08-24T14:37:08.693Z,8.63
2018-08-24T14:39:36.763Z,11.13
2018-08-24T14:42:04.829Z,5.03
2018-08-24T14:44:32.972Z,9.23
2018-08-24T14:47:01.009Z,7.03
2018-08-24T14:49:29.038Z,9.77
2018-08-24T14:51:57.040Z,2.60
2018-08-24T14:54:25.084Z,12.87
2018-08-24T14:56:53.102Z,4.90
2018-08-24T14:59:21.125Z,11.80
2018-08-24T15:01:49.112Z,8.07
2018-08-24T15:04:17.148Z,4.77
2018-08-24T15:06:45.125Z,7.50
2018-08-24T15:09:13.166Z,11.33
2018-08-24T15:11:41.172Z,10.00
2018-08-24T15:14:09.738Z,2.47
2018-08-24T15:16:37.761Z,5.43
2018-08-24T15:19:05.937Z,10.23
2018-08-24T15:21:33.924Z,7.20
2018-08-24T15:24:01.953Z,5.20
2018-08-24T15:26:29.948Z,13.83
2018-08-24T15:28:58.013Z,6.37
2018-08-24T15:31:25.981Z,18.23
2018-08-24T15:33:54.005Z,14.33
2018-08-24T15:36:21.996Z,3.30
2018-08-24T15:38:50.029Z,5.57
2018-08-24T15:41:18.047Z,3.80
2018-08-24T15:43:46.075Z,4.00
2018-08-24T15:46:14.143Z,2.43
2018-08-24T15:48:42.081Z,5.50
2018-08-24T15:51:10.105Z,8.50
2018-08-24T15:53:38.102Z,2.93
2018-08-24T15:56:06.130Z,5.50
2018-08-24T15:58:34.221Z,2.90
2018-08-24T16:01:02.249Z,11.83
2018-08-24T16:03:30.281Z,26.00
2018-08-24T16:05:58.292Z,5.23
2018-08-24T16:08:26.343Z,16.73
2018-08-24T16:10:54.356Z,6.63
2018-08-24T16:13:22.364Z,9.20
2018-08-24T16:15:50.413Z,15.30
2018-08-24T16:18:23.005Z,11.57
2018-08-24T16:20:51.291Z,6.20
2018-08-24T16:23:19.325Z,8.27
2018-08-24T16:25:47.634Z,6.90
2018-08-24T16:28:15.640Z,3.30
2018-08-24T16:30:43.796Z,5.63
2018-08-24T16:33:11.827Z,2.07
2018-08-24T16:35:39.857Z,9.73
2018-08-24T16:38:07.850Z,2.53
2018-08-24T16:40:35.968Z,4.40
2018-08-24T16:43:03.980Z,6.63
2018-08-24T16:45:31.985Z,2.07
2018-08-24T16:48:00.017Z,3.03
2018-08-24T16:50:28.074Z,2.40
2018-08-24T16:52:56.058Z,3.30
2018-08-24T16:55:24.055Z,4.47
2018-08-24T16:57:52.804Z,6.27
2018-08-24T17:00:20.819Z,2.10
2018-08-24T17:02:48.800Z,4.47
2018-08-24T17:05:16.883Z,5.03
2018-08-24T17:07:45.952Z,3.60
2018-08-24T17:10:13.964Z,2.87
2018-08-24T17:12:42.024Z,3.67
2018-08-24T17:15:09.989Z,2.40
2018-08-24T17:17:37.981Z,3.83
2018-08-24T17:20:06.197Z,9.33
2018-08-24T17:22:34.225Z,7.60
2018-08-24T17:25:02.274Z,7.00
2018-08-24T17:27:30.269Z,6.33
2018-08-24T17:29:58.258Z,7.40
2018-08-24T17:32:26.292Z,4.90
2018-08-24T17:34:54.286Z,8.43
2018-08-24T17:37:22.397Z,4.10
2018-08-24T17:39:50.456Z,4.20
2018-08-24T17:42:18.472Z,4.40
2018-08-24T17:44:46.477Z,4.63
2018-08-24T17:47:14.492Z,5.50
2018-08-24T17:49:42.481Z,2.17
2018-08-24T17:52:10.808Z,4.10
2018-08-24T17:54:38.807Z,5.27
2018-08-24T17:57:06.828Z,1.97
2018-08-24T17:59:34.838Z,4.93
2018-08-24T18:02:03.081Z,2.60
2018-08-24T18:04:31.101Z,5.50
2018-08-24T18:06:59.129Z,4.50
2018-08-24T18:09:27.118Z,10.30
2018-08-24T18:11:55.138Z,6.30
2018-08-24T18:14:23.130Z,2.13
2018-08-24T18:16:51.645Z,4.17
2018-08-24T18:19:19.669Z,2.40
2018-08-24T18:21:47.801Z,4.80
2018-08-24T18:24:15.821Z,4.00
2018-08-24T18:26:43.820Z,4.20
2018-08-24T18:29:11.816Z,2.97
2018-08-24T18:31:39.918Z,3.37
2018-08-24T18:34:07.906Z,5.83
2018-08-24T18:36:36.074Z,8.30
2018-08-24T18:39:06.290Z,5.07
2018-08-24T18:41:34.388Z,8.10
2018-08-24T18:44:02.377Z,6.37
2018-08-24T18:46:30.375Z,4.57
2018-08-24T18:48:58.364Z,14.93
2018-08-24T18:51:26.361Z,4.47
2018-08-24T18:53:54.360Z,3.47
2018-08-24T18:56:22.391Z,2.07
2018-08-24T18:58:50.574Z,3.33
2018-08-24T19:01:18.821Z,5.03
2018-08-24T19:03:47.825Z,6.43
2018-08-24T19:06:15.838Z,4.30
2018-08-24T19:08:43.873Z,4.57
2018-08-24T19:11:17.366Z,3.97
2018-08-24T19:13:45.460Z,2.93
2018-08-24T19:16:13.431Z,7.03
2018-08-24T19:18:46.959Z,5.37
2018-08-24T19:21:20.356Z,6.97
2018-08-24T19:23:48.661Z,5.60
2018-08-24T19:26:16.713Z,6.53
2018-08-24T19:28:50.081Z,5.53
2018-08-24T19:31:18.124Z,8.90
2018-08-24T19:33:46.173Z,9.00
2018-08-24T19:36:14.164Z,2.83
2018-08-24T19:38:42.185Z,2.83
2018-08-24T19:42:18.277Z,7.93
2018-08-24T19:44:46.329Z,4.37
2018-08-24T19:47:19.761Z,4.80
2018-08-24T19:49:47.761Z,7.33
2018-08-24T19:52:15.784Z,3.70
2018-08-24T19:54:43.824Z,11.37
2018-08-24T19:57:17.341Z,4.03
2018-08-24T19:59:45.337Z,1.67
2018-08-24T20:02:13.391Z,7.10
2018-08-24T20:04:41.418Z,9.53
2018-08-24T20:07:14.980Z,6.47
2018-08-24T20:09:48.665Z,1.00
2018-08-24T20:12:16.681Z,3.13
2018-08-24T20:14:50.180Z,6.47
2018-08-24T20:17:23.736Z,4.87
2018-08-24T20:19:51.729Z,3.43
2018-08-24T20:22:19.746Z,3.53
2018-08-24T20:24:47.733Z,2.93
2018-08-24T20:27:15.754Z,5.73
2018-08-24T20:29:43.796Z,7.30
2018-08-24T20:32:11.781Z,4.50
2018-08-24T20:34:39.773Z,8.80
2018-08-24T20:37:07.781Z,7.63
2018-08-24T20:39:35.772Z,7.10
2018-08-24T20:42:03.796Z,3.13
2018-08-24T20:44:31.801Z,3.63
2018-08-24T20:46:59.793Z,2.13
2018-08-24T20:49:27.782Z,7.43
2018-08-24T20:51:55.781Z,11.70
2018-08-24T20:54:23.789Z,3.07
2018-08-24T20:56:51.837Z,7.40
2018-08-24T20:59:19.836Z,3.33
2018-08-24T21:01:47.876Z,1.10
2018-08-24T21:04:16.008Z,10.63
2018-08-24T21:06:43.974Z,2.60
2018-08-24T21:09:18.722Z,3.60
2018-08-24T21:11:46.741Z,7.40
2018-08-24T21:14:14.797Z,1.73
2018-08-24T21:16:42.874Z,4.60
2018-08-24T21:19:10.820Z,4.40
2018-08-24T21:21:38.828Z,3.20
2018-08-24T21:24:07.407Z,6.40
2018-08-24T21:26:35.566Z,11.27
2018-08-24T21:29:03.655Z,7.20
2018-08-24T21:31:31.592Z,3.30
2018-08-24T21:33:59.664Z,3.20
2018-08-24T21:36:27.686Z,2.03
2018-08-24T21:38:55.792Z,13.50
2018-08-24T21:41:23.824Z,6.87
2018-08-24T21:43:51.876Z,9.20
2018-08-24T21:46:19.921Z,2.97
2018-08-24T21:48:48.149Z,4.33
2018-08-24T21:51:17.190Z,6.40
2018-08-24T21:53:45.261Z,4.57
2018-08-24T21:56:13.357Z,1.83
2018-08-24T21:58:41.579Z,4.57
2018-08-24T22:01:09.565Z,5.10
2018-08-24T22:03:37.546Z,8.70
2018-08-24T22:06:05.616Z,4.40
2018-08-24T22:08:33.653Z,5.40
2018-08-24T22:11:01.719Z,6.23
2018-08-24T22:13:29.705Z,7.93
2018-08-24T22:15:57.857Z,3.93
2018-08-24T22:18:25.881Z,4.20
2018-08-24T22:20:53.994Z,10.00
2018-08-24T22:23:22.220Z,6.00
2018-08-24T22:25:50.277Z,6.00
2018-08-24T22:28:18.290Z,11.17
2018-08-24T22:30:46.267Z,3.87
2018-08-24T22:33:14.240Z,3.03
2018-08-24T22:35:42.281Z,2.03
2018-08-24T22:38:10.277Z,4.87
2018-08-24T22:40:38.390Z,6.13
2018-08-24T22:43:10.582Z,6.63
2018-08-24T22:45:38.652Z,2.03
2018-08-24T22:48:06.633Z,8.80
2018-08-24T22:50:34.693Z,2.73
2018-08-24T22:53:02.681Z,6.40
2018-08-24T22:55:30.694Z,2.63
2018-08-24T22:57:59.549Z,7.03
2018-08-24T23:00:27.546Z,3.30
2018-08-24T23:02:55.549Z,10.83
2018-08-24T23:05:23.662Z,6.50
2018-08-24T23:07:51.734Z,5.60
2018-08-24T23:10:19.779Z,4.73
2018-08-24T23:12:47.821Z,2.13
2018-08-24T23:15:15.832Z,8.93
2018-08-24T23:17:43.856Z,6.40
2018-08-24T23:20:11.857Z,6.67
2018-08-24T23:22:39.853Z,3.17
2018-08-24T23:25:07.968Z,5.47
2018-08-24T23:27:36.008Z,8.20
2018-08-24T23:30:04.455Z,2.45
2018-08-24T23:32:33.000Z,7.27
2018-08-24T23:35:00.984Z,8.00
2018-08-24T23:37:29.205Z,7.73
2018-08-24T23:39:57.188Z,6.27
2018-08-24T23:42:26.225Z,2.53
2018-08-24T23:44:54.301Z,2.57
2018-08-24T23:47:22.344Z,6.53
2018-08-24T23:49:50.332Z,4.90
2018-08-24T23:52:18.433Z,9.10
2018-08-24T23:54:46.525Z,4.87
2018-08-24T23:57:14.545Z,2.30
2018-08-24T23:59:42.568Z,5.27
